createdAt,value
2023-02-15T00:01:04.193Z,1.67
2023-02-15T00:05:03.914Z,1.35
2023-02-15T00:08:11.771Z,1.40
2023-02-15T00:11:23.567Z,1.65
2023-02-15T00:14:41.972Z,1.50
2023-02-15T00:18:02.755Z,1.48
2023-02-15T00:21:03.549Z,1.25
2023-02-15T00:24:10.641Z,1.70
2023-02-15T00:27:20.120Z,1.35
2023-02-15T00:34:35.020Z,1.30
2023-02-15T00:37:52.168Z,1.48
2023-02-15T00:44:23.497Z,1.50
2023-02-15T00:47:22.246Z,1.33
2023-02-15T00:50:24.043Z,1.70
2023-02-15T00:53:35.211Z,1.85
2023-02-15T00:56:39.920Z,1.50
2023-02-15T00:59:52.680Z,1.40
2023-02-15T01:06:35.850Z,1.60
2023-02-15T01:13:12.841Z,1.50
2023-02-15T01:16:24.676Z,1.63
2023-02-15T01:23:15.378Z,1.70
2023-02-15T01:26:56.080Z,1.55
2023-02-15T01:30:04.083Z,1.92
2023-02-15T01:33:13.948Z,1.83
2023-02-15T01:36:51.271Z,1.60
2023-02-15T01:40:02.482Z,1.75
2023-02-15T01:43:10.433Z,1.80
2023-02-15T01:46:30.866Z,1.80
2023-02-15T01:49:44.804Z,1.77
2023-02-15T01:52:55.642Z,2.00
2023-02-15T01:56:19.892Z,1.90
2023-02-15T01:59:34.358Z,2.30
2023-02-15T02:06:19.690Z,2.00
2023-02-15T02:09:39.985Z,2.13
2023-02-15T02:12:48.569Z,2.30
2023-02-15T02:16:04.337Z,2.30
2023-02-15T02:19:42.421Z,2.30
2023-02-15T02:23:36.116Z,2.20
2023-02-15T02:27:23.551Z,2.22
2023-02-15T02:30:50.521Z,2.25
2023-02-15T02:34:19.818Z,2.20
2023-02-15T02:38:16.824Z,2.20
2023-02-15T02:44:48.177Z,1.90
2023-02-15T02:48:10.447Z,1.77
2023-02-15T02:51:19.678Z,2.15
2023-02-15T02:54:51.985Z,2.38
2023-02-15T02:58:11.724Z,2.25
2023-02-15T03:01:39.660Z,2.17
2023-02-15T03:04:52.571Z,2.08
2023-02-15T03:08:32.010Z,1.95
2023-02-15T03:12:03.898Z,2.28
2023-02-15T03:15:19.571Z,2.28
2023-02-15T03:18:30.935Z,2.17
2023-02-15T03:22:02.818Z,2.40
2023-02-15T03:25:30.283Z,2.72
2023-02-15T03:29:00.488Z,2.60
2023-02-15T03:32:05.137Z,2.17
2023-02-15T03:35:11.897Z,2.47
2023-02-15T03:44:03.480Z,2.00
2023-02-15T03:47:55.964Z,2.10
2023-02-15T03:51:38.083Z,2.10
2023-02-15T03:54:52.728Z,2.10
2023-02-15T03:58:16.742Z,2.40
2023-02-15T04:01:52.493Z,2.00
2023-02-15T04:05:12.341Z,2.00
2023-02-15T04:08:19.189Z,2.00
2023-02-15T04:11:24.484Z,2.03
2023-02-15T04:14:48.328Z,2.00
2023-02-15T04:17:56.566Z,1.92
2023-02-15T04:21:23.588Z,2.00
2023-02-15T04:25:11.223Z,2.00
2023-02-15T04:28:19.914Z,1.95
2023-02-15T04:31:30.832Z,1.88
2023-02-15T04:34:40.816Z,2.00
2023-02-15T04:37:52.075Z,1.98
2023-02-15T04:41:14.337Z,2.00
2023-02-15T04:44:22.496Z,1.90
2023-02-15T04:55:20.306Z,1.95
2023-02-15T04:58:34.297Z,1.95
2023-02-15T05:01:51.953Z,2.10
2023-02-15T05:04:51.789Z,1.95
2023-02-15T05:12:20.670Z,1.95
2023-02-15T05:16:16.808Z,1.98
2023-02-15T05:19:40.377Z,1.95
2023-02-15T05:22:51.903Z,2.22
2023-02-15T05:26:14.358Z,2.20
2023-02-15T05:29:48.117Z,2.05
2023-02-15T05:32:55.745Z,2.10
2023-02-15T05:39:16.462Z,1.80
2023-02-15T05:42:19.740Z,1.90
2023-02-15T05:45:32.712Z,1.80
2023-02-15T05:49:08.354Z,1.92
2023-02-15T05:52:24.646Z,1.70
2023-02-15T05:55:25.105Z,1.83
2023-02-15T05:58:34.984Z,1.70
2023-02-15T06:01:39.789Z,1.80
2023-02-15T06:04:44.340Z,1.67
2023-02-15T06:07:52.446Z,1.80
2023-02-15T06:11:24.306Z,1.60
2023-02-15T06:14:30.801Z,1.70
2023-02-15T06:17:39.473Z,1.90
2023-02-15T06:21:11.757Z,1.63
2023-02-15T06:24:23.454Z,1.58
2023-02-15T06:27:36.104Z,1.60
2023-02-15T06:30:42.727Z,1.60
2023-02-15T06:34:16.233Z,1.75
2023-02-15T06:37:12.260Z,1.67
2023-02-15T06:40:20.080Z,1.50
2023-02-15T06:43:34.917Z,1.83
2023-02-15T06:46:40.177Z,1.50
2023-02-15T06:49:40.569Z,1.60
2023-02-15T06:52:39.680Z,1.80
2023-02-15T06:55:44.807Z,1.65
2023-02-15T06:59:00.136Z,1.60
2023-02-15T07:02:08.563Z,1.80
2023-02-15T07:05:24.808Z,1.77
2023-02-15T07:08:34.497Z,1.75
2023-02-15T07:12:00.705Z,1.73
2023-02-15T07:15:09.045Z,1.60
2023-02-15T07:18:19.901Z,1.80
2023-02-15T07:21:23.679Z,1.80
2023-02-15T07:24:32.052Z,1.80
2023-02-15T07:27:40.225Z,1.60
2023-02-15T07:31:12.337Z,1.60
2023-02-15T07:34:24.306Z,1.65
2023-02-15T07:37:34.194Z,1.60
2023-02-15T07:40:40.224Z,1.52
2023-02-15T07:43:54.455Z,1.52
2023-02-15T07:47:03.287Z,1.90
2023-02-15T07:50:34.644Z,1.55
2023-02-15T07:53:39.889Z,1.55
2023-02-15T07:57:26.729Z,1.58
2023-02-15T08:00:16.153Z,1.70
2023-02-15T08:03:27.128Z,1.77
2023-02-15T08:06:40.181Z,1.70
2023-02-15T08:14:17.104Z,1.63
2023-02-15T08:21:52.750Z,1.80
2023-02-15T08:25:22.262Z,1.80
2023-02-15T08:28:26.767Z,1.80
2023-02-15T08:31:40.561Z,1.80
2023-02-15T08:34:52.059Z,1.52
2023-02-15T08:38:03.848Z,1.70
2023-02-15T08:41:16.038Z,1.60
2023-02-15T08:44:24.566Z,1.70
2023-02-15T08:51:04.601Z,1.63
2023-02-15T08:54:04.148Z,1.48
2023-02-15T08:57:10.880Z,1.58
2023-02-15T09:00:20.721Z,1.60
2023-02-15T09:03:31.354Z,1.60
2023-02-15T09:06:36.741Z,1.70
2023-02-15T09:09:40.063Z,1.67
2023-02-15T09:12:48.154Z,1.75
2023-02-15T09:15:52.118Z,1.67
2023-02-15T09:19:07.213Z,1.52
2023-02-15T09:22:11.967Z,1.67
2023-02-15T09:25:23.563Z,1.40
2023-02-15T09:28:30.945Z,2.05
2023-02-15T09:31:44.456Z,1.65
2023-02-15T09:34:59.820Z,1.70
2023-02-15T09:38:03.984Z,1.70
2023-02-15T09:41:35.993Z,1.80
2023-02-15T09:45:00.575Z,1.73
2023-02-15T09:48:39.803Z,1.90
2023-02-15T09:52:11.796Z,1.70
2023-02-15T09:55:30.391Z,1.60
2023-02-15T09:58:42.637Z,1.50
2023-02-15T10:02:24.071Z,1.50
2023-02-15T10:06:05.118Z,1.60
2023-02-15T10:09:52.059Z,1.80
2023-02-15T10:13:52.086Z,1.90
2023-02-15T10:17:22.658Z,1.70
2023-02-15T10:20:53.241Z,1.58
2023-02-15T10:24:11.779Z,1.63
2023-02-15T10:27:28.657Z,1.70
2023-02-15T10:31:03.859Z,1.70
2023-02-15T10:34:19.852Z,1.70
2023-02-15T10:37:31.957Z,1.70
2023-02-15T10:41:16.607Z,1.73
2023-02-15T10:44:44.333Z,1.63
2023-02-15T10:48:09.186Z,1.30
2023-02-15T10:51:24.369Z,1.50
2023-02-15T10:54:43.817Z,1.60
2023-02-15T10:58:19.679Z,1.55
2023-02-15T11:01:28.559Z,1.80
2023-02-15T11:05:04.009Z,1.70
2023-02-15T11:08:18.083Z,1.60
2023-02-15T11:11:40.289Z,1.55
2023-02-15T11:15:09.063Z,1.40
2023-02-15T11:18:36.611Z,1.80
2023-02-15T11:22:12.297Z,1.70
2023-02-15T11:25:48.428Z,1.17
2023-02-15T11:28:56.751Z,1.42
2023-02-15T11:32:11.981Z,1.60
2023-02-15T11:35:51.981Z,1.50
2023-02-15T11:39:41.194Z,1.45
2023-02-15T11:42:48.971Z,1.98
2023-02-15T11:45:52.194Z,1.88
2023-02-15T11:49:04.061Z,1.90
2023-02-15T11:52:12.095Z,1.77
2023-02-15T11:55:44.042Z,1.80
2023-02-15T11:59:19.772Z,1.60
2023-02-15T12:02:40.337Z,1.83
2023-02-15T12:06:12.224Z,1.50
2023-02-15T12:09:17.275Z,1.60
2023-02-15T12:12:52.247Z,1.50
2023-02-15T12:16:04.333Z,1.60
2023-02-15T12:19:19.180Z,1.55
2023-02-15T12:22:56.961Z,1.77
2023-02-15T12:26:40.895Z,1.50
2023-02-15T12:34:40.466Z,1.48
2023-02-15T12:38:00.722Z,1.50
2023-02-15T12:41:41.187Z,1.52
2023-02-15T12:45:37.077Z,1.40
2023-02-15T12:48:52.899Z,1.42
2023-02-15T12:52:08.814Z,1.30
2023-02-15T12:55:47.322Z,1.33
2023-02-15T12:58:56.789Z,1.33
2023-02-15T13:02:06.373Z,1.55
2023-02-15T13:05:31.805Z,1.70
2023-02-15T13:08:48.552Z,1.35
2023-02-15T13:11:59.538Z,1.65
2023-02-15T13:15:12.703Z,1.60
2023-02-15T13:18:49.403Z,1.58
2023-02-15T13:22:12.109Z,1.40
2023-02-15T13:25:41.302Z,1.80
2023-02-15T13:32:56.757Z,1.80
2023-02-15T13:36:23.048Z,1.38
2023-02-15T13:39:38.895Z,1.50
2023-02-15T13:42:48.824Z,1.65
2023-02-15T13:46:19.694Z,1.52
2023-02-15T13:50:38.392Z,1.60
2023-02-15T13:53:58.380Z,1.50
2023-02-15T13:57:40.777Z,1.55
2023-02-15T14:01:40.495Z,1.75
2023-02-15T14:10:13.291Z,1.38
2023-02-15T14:15:01.282Z,1.40
2023-02-15T14:19:01.325Z,1.42
2023-02-15T14:22:16.916Z,1.58
2023-02-15T14:26:00.340Z,1.63
2023-02-15T14:29:31.953Z,1.55
2023-02-15T14:33:08.580Z,1.70
2023-02-15T14:36:35.903Z,1.27
2023-02-15T14:39:50.788Z,1.75
2023-02-15T14:43:39.404Z,1.65
2023-02-15T14:46:52.966Z,1.60
2023-02-15T14:50:22.854Z,1.58
2023-02-15T14:54:07.718Z,1.77
2023-02-15T14:57:20.137Z,1.73
2023-02-15T15:00:56.922Z,1.80
2023-02-15T15:04:11.826Z,1.67
2023-02-15T15:07:36.853Z,1.70
2023-02-15T15:11:04.436Z,1.67
2023-02-15T15:14:16.415Z,1.70
2023-02-15T15:17:20.933Z,1.70
2023-02-15T15:21:08.614Z,1.80
2023-02-15T15:25:00.208Z,1.67
2023-02-15T15:28:16.184Z,1.67
2023-02-15T15:31:32.036Z,1.67
2023-02-15T15:35:19.647Z,1.80
2023-02-15T15:38:56.159Z,1.88
2023-02-15T15:42:16.755Z,1.75
2023-02-15T15:45:57.158Z,1.80
2023-02-15T15:49:33.709Z,1.60
2023-02-15T15:52:40.525Z,1.60
2023-02-15T15:55:48.433Z,1.80
2023-02-15T15:59:12.170Z,1.70
2023-02-15T16:02:26.994Z,1.95
2023-02-15T16:05:31.711Z,1.60
2023-02-15T16:08:48.616Z,1.70
2023-02-15T16:11:48.534Z,1.75
2023-02-15T16:15:40.047Z,1.70
2023-02-15T16:18:51.548Z,1.60
2023-02-15T16:22:04.182Z,1.73
2023-02-15T16:25:20.434Z,1.65
2023-02-15T16:28:32.216Z,1.85
2023-02-15T16:31:47.314Z,1.77
2023-02-15T16:34:52.712Z,1.85
2023-02-15T16:38:04.178Z,1.85
2023-02-15T16:41:12.965Z,2.08
2023-02-15T16:44:32.991Z,1.80
2023-02-15T16:47:50.868Z,1.83
2023-02-15T16:51:04.766Z,1.75
2023-02-15T16:54:16.023Z,1.70
2023-02-15T16:57:41.361Z,1.80
2023-02-15T17:00:50.606Z,1.75
2023-02-15T17:04:04.108Z,1.90
2023-02-15T17:07:39.227Z,1.70
2023-02-15T17:11:08.890Z,1.65
2023-02-15T17:14:22.603Z,1.73
2023-02-15T17:17:54.720Z,1.83
2023-02-15T17:21:01.396Z,1.88
2023-02-15T17:24:17.153Z,1.85
2023-02-15T17:27:36.515Z,1.58
2023-02-15T17:30:56.302Z,1.70
2023-02-15T17:34:48.177Z,1.92
2023-02-15T17:37:56.538Z,2.20
2023-02-15T17:41:02.821Z,2.00
2023-02-15T17:44:08.409Z,2.00
2023-02-15T17:47:11.092Z,2.00
2023-02-15T17:50:34.827Z,1.85
2023-02-15T17:53:44.432Z,1.90
2023-02-15T17:56:58.242Z,2.00
2023-02-15T18:00:48.569Z,1.90
2023-02-15T18:04:30.925Z,1.80
2023-02-15T18:07:55.313Z,1.73
2023-02-15T18:11:22.888Z,1.70
2023-02-15T18:14:51.010Z,1.77
2023-02-15T18:18:02.790Z,1.90
2023-02-15T18:21:09.394Z,1.77
2023-02-15T18:24:34.622Z,2.00
2023-02-15T18:27:56.766Z,1.85
2023-02-15T18:31:09.511Z,1.80
2023-02-15T18:34:46.630Z,1.90
2023-02-15T18:38:04.082Z,1.75
2023-02-15T18:41:10.730Z,1.90
2023-02-15T18:44:31.906Z,1.75
2023-02-15T18:47:48.017Z,2.13
2023-02-15T18:51:01.657Z,1.92
2023-02-15T18:54:21.424Z,2.20
2023-02-15T18:57:32.706Z,2.13
2023-02-15T19:01:15.418Z,1.90
2023-02-15T19:04:32.384Z,1.83
2023-02-15T19:08:20.512Z,1.77
2023-02-15T19:11:59.006Z,1.83
2023-02-15T19:15:04.438Z,1.80
2023-02-15T19:18:46.852Z,1.80
2023-02-15T19:21:52.302Z,1.70
2023-02-15T19:25:11.700Z,2.00
2023-02-15T19:28:54.625Z,2.08
2023-02-15T19:32:04.986Z,1.83
2023-02-15T19:35:37.155Z,2.05
2023-02-15T19:39:43.034Z,1.88
2023-02-15T19:46:33.645Z,1.90
2023-02-15T19:49:47.279Z,1.80
2023-02-15T19:52:53.460Z,1.90
2023-02-15T19:56:03.013Z,2.00
2023-02-15T19:59:52.605Z,1.83
2023-02-15T20:03:14.808Z,1.90
2023-02-15T20:06:32.369Z,1.83
2023-02-15T20:10:02.350Z,1.90
2023-02-15T20:13:17.457Z,2.00
2023-02-15T20:16:55.997Z,2.20
2023-02-15T20:20:02.879Z,1.98
2023-02-15T20:23:13.044Z,1.80
2023-02-15T20:26:32.351Z,1.90
2023-02-15T20:29:36.765Z,2.10
2023-02-15T20:32:51.445Z,1.88
2023-02-15T20:36:02.735Z,1.80
2023-02-15T20:39:17.464Z,1.90
2023-02-15T20:42:28.452Z,2.00
2023-02-15T20:45:56.173Z,1.83
2023-02-15T20:49:03.881Z,1.90
2023-02-15T20:52:12.676Z,1.92
2023-02-15T20:55:32.557Z,1.77
2023-02-15T20:58:50.636Z,2.05
2023-02-15T21:02:03.098Z,1.85
2023-02-15T21:05:16.585Z,1.80
2023-02-15T21:08:52.881Z,1.85
2023-02-15T21:12:08.480Z,1.58
2023-02-15T21:15:44.929Z,1.80
2023-02-15T21:18:53.104Z,1.70
2023-02-15T21:22:03.857Z,1.90
2023-02-15T21:25:09.176Z,2.00
2023-02-15T21:28:15.987Z,1.83
2023-02-15T21:31:44.217Z,1.88
2023-02-15T21:34:48.101Z,1.80
2023-02-15T21:37:52.446Z,2.10
2023-02-15T21:41:32.536Z,1.90
2023-02-15T21:44:52.428Z,1.90
2023-02-15T21:48:04.551Z,1.80
2023-02-15T21:51:28.654Z,1.88
2023-02-15T21:55:03.114Z,1.80
2023-02-15T21:58:35.529Z,1.90
2023-02-15T22:02:04.068Z,2.00
2023-02-15T22:05:08.019Z,1.80
2023-02-15T22:08:12.494Z,1.70
2023-02-15T22:11:15.828Z,1.88
2023-02-15T22:14:19.705Z,1.75
2023-02-15T22:17:42.895Z,1.80
2023-02-15T22:21:16.344Z,2.10
2023-02-15T22:24:48.282Z,2.03
2023-02-15T22:27:56.234Z,1.90
2023-02-15T22:31:03.166Z,2.00
2023-02-15T22:34:08.072Z,2.03
2023-02-15T22:37:13.438Z,1.83
2023-02-15T22:40:19.901Z,1.83
2023-02-15T22:46:39.949Z,1.83
2023-02-15T22:49:44.011Z,1.90
2023-02-15T22:53:01.490Z,1.88
2023-02-15T22:56:03.704Z,1.88
2023-02-15T22:59:12.175Z,1.90
2023-02-15T23:02:15.965Z,1.88
2023-02-15T23:05:19.914Z,2.07
2023-02-15T23:08:24.045Z,2.00
2023-02-15T23:11:30.604Z,2.00
2023-02-15T23:15:04.548Z,1.95
2023-02-15T23:18:18.814Z,1.90
2023-02-15T23:21:41.561Z,1.90
2023-02-15T23:24:48.470Z,2.00
2023-02-15T23:28:04.543Z,1.95
2023-02-15T23:31:11.213Z,1.77
2023-02-15T23:34:33.110Z,2.00
2023-02-15T23:37:41.102Z,1.90
2023-02-15T23:41:20.751Z,1.90
2023-02-15T23:44:24.258Z,2.00
2023-02-15T23:48:16.053Z,1.90
2023-02-15T23:51:24.741Z,2.00
2023-02-15T23:54:32.017Z,2.08
2023-02-15T23:57:40.663Z,2.20
